Data for 01/18/2016

Time Sea-Level Adjusted Pressure Absolute Pressure Temperature Relative Humidity Dew Point   
(mb) (inHg) (mb) (inHg) (C) (F) (%) (C) (F)
00:05 1014 29.94 843 24.89 0.2 32.4 65 -5.5 22.1
00:10 1014 29.94 843 24.89 0.1 32.2 68 -5.1 22.9
00:15 1014 29.94 843 24.89 -0.2 31.6 70 -5 23
00:20 1014 29.94 843 24.89 -0 31.9 63 -6.2 20.8
00:25 1014 29.94 843 24.89 0.8 33.4 58 -6.7 20
00:30 1014 29.94 843 24.89 1.5 34.8 59 -5.7 21.8
00:35 1014 29.94 843 24.89 1.4 34.5 59 -5.8 21.5
00:40 1014 29.94 843 24.89 1.2 34.2 61 -5.4 22.2
00:45 1014 29.94 843 24.89 1 33.8 63 -5.4 22.3
00:50 1014 29.94 843 24.89 0.9 33.6 65 -5 22.9
00:55 1013 29.91 843 24.89 0.6 33.1 66 -5 23
01:00 1013 29.91 842 24.86 0.4 32.7 66 -5.2 22.7
01:05 1013 29.91 842 24.86 0.2 32.4 67 -5.2 22.6
01:10 1013 29.91 842 24.86 0.2 32.4 66 -5.4 22.4
01:15 1013 29.91 842 24.86 0.1 32.2 65 -5.6 22
01:20 1013 29.91 842 24.86 0.2 32.3 67 -5.2 22.6
01:25 1013 29.91 842 24.86 0.2 32.4 68 -5 23
01:30 1013 29.91 842 24.86 0.2 32.3 66 -5.4 22.3
01:35 1013 29.91 842 24.86 0.2 32.4 62 -6.2 20.8
01:40 1013 29.91 842 24.86 0.4 32.7 65 -5.3 22.4
01:45 1013 29.91 842 24.86 0.3 32.6 66 -5.3 22.4
01:50 1013 29.91 842 24.86 0.3 32.6 67 -5.1 22.9
01:55 1013 29.91 842 24.86 0.1 32.3 70 -4.7 23.6
02:00 1013 29.91 842 24.86 -0.4 31.4 74 -4.4 24
02:05 1013 29.91 842 24.86 -0.6 31 74 -4.6 23.7
02:10 1013 29.91 842 24.86 -0.5 31.1 75 -4.4 24.2
02:15 1013 29.91 842 24.86 -0.5 31.1 75 -4.4 24.1
02:20 1013 29.91 842 24.86 -0.3 31.4 73 -4.6 23.7
02:25 1013 29.91 842 24.86 0.1 32.2 72 -4.3 24.3
02:30 1013 29.91 842 24.86 0.1 32.1 70 -4.7 23.5
02:35 1013 29.91 842 24.86 0 32.1 69 -5 23
02:40 1013 29.91 842 24.86 0.1 32.2 67 -5.3 22.5
02:45 1013 29.91 842 24.86 0.3 32.5 71 -4.4 24
02:50 1013 29.91 842 24.86 0.1 32.2 71 -4.5 23.9
02:55 1013 29.91 842 24.86 0.1 32.2 71 -4.6 23.8
03:00 1013 29.91 842 24.86 0.1 32.2 72 -4.4 24
03:05 1013 29.91 842 24.86 0.2 32.4 70 -4.7 23.6
03:10 1013 29.91 842 24.86 0.4 32.7 69 -4.6 23.7
03:15 1013 29.91 842 24.86 0.3 32.6 70 -4.6 23.8
03:20 1013 29.91 842 24.86 0.3 32.6 71 -4.4 24.1
03:25 1013 29.91 842 24.86 0.1 32.2 74 -4.1 24.7
03:30 1013 29.91 842 24.86 -0 32 71 -4.7 23.6
03:35 1013 29.91 842 24.86 0.4 32.8 68 -4.8 23.4
03:40 1013 29.91 842 24.86 0.9 33.7 65 -4.8 23.3
03:45 1013 29.91 842 24.86 1 33.8 67 -4.4 24
03:50 1013 29.91 842 24.86 0.9 33.7 66 -4.6 23.7
03:55 1013 29.91 842 24.86 1.1 34 66 -4.6 23.8
04:00 1012 29.88 842 24.86 1.1 33.9 66 -4.5 23.9
04:05 1012 29.88 842 24.86 1.1 34.1 65 -4.6 23.7
04:10 1013 29.91 842 24.86 1.3 34.3 66 -4.5 24
04:15 1013 29.91 842 24.86 1.3 34.4 64 -4.7 23.5
04:20 1013 29.91 842 24.86 1.5 34.7 64 -4.5 23.9
04:25 1013 29.91 842 24.86 1.5 34.6 65 -4.5 24
04:30 1013 29.91 842 24.86 1.5 34.6 65 -4.5 24
04:35 1013 29.91 842 24.86 1.5 34.7 64 -4.6 23.7
04:40 1013 29.91 842 24.86 1.8 35.3 63 -4.5 23.8
04:45 1013 29.91 842 24.86 2 35.6 63 -4.3 24.3
04:50 1013 29.91 842 24.86 1.8 35.2 64 -4.4 24.2
04:55 1013 29.91 842 24.86 1.8 35.2 64 -4.4 24
05:00 1013 29.91 842 24.86 1.7 35 64 -4.5 23.9
05:05 1013 29.91 842 24.86 1.6 34.9 64 -4.4 24.1
05:10 1013 29.91 842 24.86 1.5 34.6 66 -4.2 24.4
05:15 1013 29.91 842 24.86 1.6 34.8 63 -4.7 23.6
05:20 1013 29.91 842 24.86 1.6 34.9 63 -4.6 23.7
05:25 1013 29.91 842 24.86 1.7 35.1 63 -4.5 23.9
05:30 1013 29.91 842 24.86 1.6 35 64 -4.5 24
05:35 1013 29.91 842 24.86 2.1 35.8 63 -4.2 24.4
05:40 1013 29.91 842 24.86 2 35.7 66 -3.7 25.4
05:45 1013 29.91 842 24.86 1.6 34.8 68 -3.7 25.4
05:50 1013 29.91 842 24.86 1.4 34.6 68 -3.7 25.3
05:55 1013 29.91 842 24.86 1.3 34.4 69 -3.6 25.5
06:00 1013 29.91 842 24.86 1.3 34.4 69 -3.8 25.2
06:05 1013 29.91 842 24.86 1.5 34.7 69 -3.5 25.7
06:10 1013 29.91 842 24.86 1.4 34.6 67 -4 24.8
06:15 1013 29.91 842 24.86 1.6 34.9 70 -3.3 26.1
06:20 1013 29.91 842 24.86 1.3 34.3 68 -3.9 25
06:25 1013 29.91 842 24.86 1.6 34.8 68 -3.7 25.3
06:30 1013 29.91 842 24.86 1.6 34.8 68 -3.6 25.4
06:35 1013 29.91 842 24.86 1.6 34.9 68 -3.6 25.4
06:40 1013 29.91 842 24.86 1.6 35 69 -3.4 25.9
06:45 1013 29.91 842 24.86 1.9 35.4 65 -3.9 25
06:50 1013 29.91 842 24.86 2.5 36.4 66 -3.3 26
06:55 1013 29.91 842 24.86 2.3 36.2 67 -3.1 26.4
07:00 1013 29.91 842 24.86 2.3 36.1 68 -3 26.5
07:05 1013 29.91 842 24.86 2.2 35.9 70 -2.8 26.9
07:10 1013 29.91 842 24.86 2 35.6 71 -2.7 27.1
07:15 1013 29.91 842 24.86 1.9 35.5 72 -2.7 27.2
07:20 1013 29.91 842 24.86 1.9 35.3 72 -2.7 27.1
07:25 1013 29.91 842 24.86 2.1 35.8 72 -2.4 27.6
07:30 1013 29.91 842 24.86 2.2 36 72 -2.4 27.7
07:35 1013 29.91 842 24.86 2.3 36.2 72 -2.2 28.1
07:40 1013 29.91 842 24.86 2.3 36.2 73 -2 28.4
07:45 1013 29.91 842 24.86 2.1 35.8 75 -1.9 28.6
07:50 1013 29.91 842 24.86 2.1 35.8 76 -1.7 28.9
07:55 1013 29.91 842 24.86 1.8 35.2 78 -1.6 29.2
08:00 1013 29.91 842 24.86 1.8 35.2 79 -1.4 29.5
08:05 1013 29.91 842 24.86 1.8 35.3 80 -1.3 29.7
08:10 1013 29.91 842 24.86 1.9 35.3 81 -1.1 30.1
08:15 1013 29.91 842 24.86 1.9 35.3 82 -0.9 30.4
08:20 1013 29.91 842 24.86 1.8 35.2 83 -0.9 30.4
08:25 1013 29.91 842 24.86 1.9 35.3 82 -0.9 30.5
08:30 1013 29.91 842 24.86 1.8 35.3 83 -0.8 30.6
08:35 1013 29.91 842 24.86 1.9 35.4 83 -0.7 30.7
08:40 1013 29.91 842 24.86 1.9 35.3 83 -0.7 30.8
08:45 1013 29.91 842 24.86 1.8 35.3 83 -0.7 30.7
08:50 1013 29.91 842 24.86 1.8 35.3 83 -0.7 30.8
08:55 1013 29.91 842 24.86 1.8 35.3 84 -0.6 30.8
09:00 1013 29.91 842 24.86 1.8 35.2 84 -0.6 30.8
09:05 1013 29.91 842 24.86 1.7 35.1 85 -0.6 30.9
09:10 1013 29.91 842 24.86 1.6 34.9 85 -0.5 31
09:15 1013 29.91 842 24.86 1.6 34.8 86 -0.6 31
09:20 1013 29.91 842 24.86 1.6 34.8 86 -0.5 31.1
09:25 1013 29.91 842 24.86 1.6 34.9 86 -0.5 31.1
09:30 1013 29.91 842 24.86 1.6 34.9 86 -0.4 31.2
09:35 1013 29.91 842 24.86 1.6 34.9 86 -0.4 31.3
09:40 1013 29.91 842 24.86 1.7 35 86 -0.4 31.2
09:45 1013 29.91 843 24.89 1.8 35.2 85 -0.4 31.3
09:50 1013 29.91 843 24.89 1.8 35.3 85 -0.4 31.3
09:55 1013 29.91 843 24.89 1.8 35.3 85 -0.4 31.3
10:00 1013 29.91 843 24.89 1.9 35.4 85 -0.4 31.3
10:05 1014 29.94 843 24.89 2 35.6 84 -0.4 31.2
10:10 1014 29.94 843 24.89 2.1 35.8 84 -0.4 31.3
10:15 1014 29.94 843 24.89 2.2 36 83 -0.4 31.3
10:20 1014 29.94 843 24.89 2.3 36.2 83 -0.2 31.6
10:25 1014 29.94 843 24.89 2.4 36.4 83 -0.2 31.6
10:30 1014 29.94 843 24.89 2.3 36.1 81 -0.7 30.7
10:35 1014 29.94 843 24.89 2 35.7 81 -0.9 30.4
10:40 1014 29.94 844 24.92 1.9 35.4 83 -0.7 30.7
10:45 1015 29.97 844 24.92 1.6 35 83 -0.9 30.4
10:50 1015 29.97 844 24.92 1.4 34.6 84 -1 30.2
10:55 1015 29.97 844 24.92 0.9 33.7 87 -1.1 30.1
11:00 1015 29.97 844 24.92 0.5 32.8 89 -1.1 30
11:05 1015 29.97 844 24.92 0.2 32.4 91 -1.1 29.9
11:10 1015 29.97 844 24.92 0.1 32.2 92 -1.1 30.1
11:15 1015 29.97 844 24.92 0.1 32.1 92 -1 30.1
11:20 1015 29.97 845 24.95 0 32 93 -1 30.1
11:25 1015 29.97 845 24.95 0.1 32.1 93 -0.9 30.3
11:30 1015 29.97 845 24.95 0.1 32.3 93 -0.9 30.4
11:35 1016 30 845 24.95 0.2 32.4 93 -0.8 30.6
11:40 1016 30 845 24.95 0.3 32.6 93 -0.7 30.8
11:45 1016 30 845 24.95 0.4 32.7 93 -0.7 30.8
11:50 1016 30 845 24.95 0.4 32.7 93 -0.7 30.8
11:55 1016 30 845 24.95 0.4 32.7 92 -0.8 30.6
12:00 1016 30 845 24.95 0.3 32.5 92 -0.8 30.5
12:05 1016 30 845 24.95 0.2 32.4 92 -0.9 30.4
12:10 1016 30 845 24.95 0.1 32.1 93 -1 30.3
12:15 1016 30 845 24.95 0 32 93 -1 30.3
12:20 1016 30 845 24.95 0 32 94 -0.9 30.4
12:25 1016 30 845 24.95 0.1 32.1 94 -0.8 30.5
12:30 1016 30 845 24.95 0.2 32.3 94 -0.7 30.8
12:35 1016 30 845 24.95 0.3 32.5 94 -0.6 30.8
12:40 1016 30 845 24.95 0.4 32.6 93 -0.6 30.9
12:45 1015 29.97 845 24.95 0.4 32.7 93 -0.7 30.8
12:50 1016 30 845 24.95 0.4 32.7 93 -0.7 30.8
12:55 1015 29.97 845 24.95 0.4 32.7 93 -0.7 30.8
13:00 1015 29.97 845 24.95 0.4 32.6 93 -0.7 30.8
13:05 1015 29.97 845 24.95 0.4 32.8 93 -0.6 30.9
13:10 1015 29.97 845 24.95 0.5 32.9 93 -0.6 31
13:15 1015 29.97 845 24.95 0.5 33 93 -0.5 31
13:20 1015 29.97 845 24.95 0.6 33 92 -0.5 31
13:25 1015 29.97 845 24.95 0.6 33.1 92 -0.5 31.1
13:30 1015 29.97 845 24.95 0.6 33.1 92 -0.5 31.1
13:35 1015 29.97 845 24.95 0.7 33.3 92 -0.4 31.2
13:40 1015 29.97 845 24.95 0.8 33.4 92 -0.4 31.3
13:45 1015 29.97 845 24.95 0.8 33.5 92 -0.4 31.3
13:50 1015 29.97 845 24.95 1 33.8 91 -0.3 31.5
13:55 1015 29.97 845 24.95 1.1 33.9 90 -0.4 31.3
14:00 1015 29.97 845 24.95 1.1 34.1 89 -0.4 31.2
14:05 1015 29.97 845 24.95 1.4 34.6 88 -0.4 31.3
14:10 1015 29.97 845 24.95 1.6 34.9 87 -0.3 31.4
14:15 1015 29.97 845 24.95 1.6 34.9 87 -0.3 31.4
14:20 1015 29.97 845 24.95 1.6 34.9 86 -0.5 31.1
14:25 1015 29.97 845 24.95 1.6 34.8 86 -0.6 30.9
14:30 1015 29.97 845 24.95 1.6 34.9 86 -0.6 31
14:35 1015 29.97 845 24.95 1.6 34.9 86 -0.6 31
14:40 1015 29.97 845 24.95 1.6 35 85 -0.6 30.9
14:45 1015 29.97 845 24.95 1.7 35 85 -0.7 30.8
14:50 1015 29.97 845 24.95 1.7 35 84 -0.7 30.8
14:55 1015 29.97 845 24.95 1.8 35.3 84 -0.7 30.8
15:00 1015 29.97 845 24.95 1.9 35.4 83 -0.7 30.7
15:05 1015 29.97 845 24.95 1.9 35.4 82 -0.9 30.5
15:10 1015 29.97 845 24.95 1.8 35.3 82 -0.8 30.5
15:15 1016 30 845 24.95 1.9 35.5 81 -1 30.2
15:20 1016 30 845 24.95 2 35.5 81 -0.9 30.4
15:25 1016 30 845 24.95 1.9 35.5 81 -1 30.2
15:30 1015 29.97 845 24.95 2 35.5 81 -1 30.2
15:35 1015 29.97 845 24.95 2.1 35.8 79 -1.1 30
15:40 1016 30 845 24.95 2.2 35.9 78 -1.2 29.8
15:45 1016 30 845 24.95 2.2 35.9 79 -1.1 30
15:50 1016 30 845 24.95 2.1 35.9 78 -1.2 29.8
15:55 1016 30 845 24.95 2.2 36 78 -1.2 29.8
16:00 1016 30 845 24.95 2.6 36.6 77 -1.2 29.9
16:05 1016 30 845 24.95 2.6 36.7 76 -1.2 29.9
16:10 1016 30 845 24.95 2.5 36.6 76 -1.3 29.7
16:15 1016 30 845 24.95 2.7 36.8 75 -1.3 29.6
16:20 1016 30 845 24.95 2.8 37 74 -1.4 29.5
16:25 1016 30 845 24.95 2.7 36.8 75 -1.3 29.6
16:30 1016 30 845 24.95 2.8 37 75 -1.1 29.9
16:35 1016 30 846 24.98 2.9 37.2 74 -1.3 29.7
16:40 1016 30 846 24.98 2.8 37 72 -1.8 28.8
16:45 1016 30 845 24.95 2.7 36.8 73 -1.7 29
16:50 1016 30 845 24.95 2.7 36.8 72 -1.8 28.8
16:55 1016 30 846 24.98 2.8 37.1 70 -2 28.3
17:00 1017 30.03 846 24.98 3.2 37.7 69 -2 28.4
17:05 1017 30.03 846 24.98 2.9 37.1 71 -2 28.4
17:10 1017 30.03 846 24.98 2.8 37 71 -1.9 28.5
17:15 1017 30.03 846 24.98 2.7 36.8 71 -2.1 28.2
17:20 1017 30.03 846 24.98 2.8 37.1 69 -2.3 27.9
17:25 1017 30.03 846 24.98 2.7 36.9 70 -2.3 27.9
17:30 1017 30.03 846 24.98 2.7 36.9 70 -2.2 28
17:35 1017 30.03 846 24.98 2.7 36.8 69 -2.4 27.6
17:40 1017 30.03 846 24.98 2.5 36.6 70 -2.3 27.8
17:45 1017 30.03 846 24.98 2.1 35.8 72 -2.4 27.7
17:50 1017 30.03 846 24.98 1.7 35.1 73 -2.6 27.3
17:55 1017 30.03 846 24.98 1.7 35.1 73 -2.7 27.2
18:00 1017 30.03 846 24.98 1.7 35 73 -2.6 27.2
18:05 1017 30.03 846 24.98 1.4 34.5 74 -2.8 26.9
18:10 1017 30.03 846 24.98 1.3 34.3 74 -2.9 26.7
18:15 1017 30.03 846 24.98 1.2 34.1 73 -3.1 26.4
18:20 1017 30.03 846 24.98 1.2 34.2 74 -3 26.7
18:25 1017 30.03 846 24.98 1.2 34.2 71 -3.4 25.9
18:30 1017 30.03 846 24.98 1.3 34.4 71 -3.3 26.1
18:35 1017 30.03 847 25.01 1.1 33.9 76 -2.7 27.2
18:40 1017 30.03 847 25.01 0.7 33.3 76 -3.1 26.4
18:45 1018 30.06 847 25.01 0.6 33.1 77 -2.9 26.7
18:50 1018 30.06 847 25.01 0.4 32.7 77 -3.3 26.1
18:55 1018 30.06 847 25.01 0.3 32.5 77 -3.3 26.1
19:00 1018 30.06 847 25.01 0.3 32.5 77 -3.3 26
19:05 1018 30.06 847 25.01 0.3 32.5 77 -3.2 26.2
19:10 1018 30.06 847 25.01 0.2 32.3 79 -3.1 26.4
19:15 1018 30.06 847 25.01 0 32.1 81 -2.8 26.9
19:20 1018 30.06 847 25.01 -0.1 31.7 82 -2.8 26.9
19:25 1018 30.06 847 25.01 -0.2 31.6 81 -3.1 26.4
19:30 1018 30.06 847 25.01 -0.1 31.9 80 -3.1 26.4
19:35 1018 30.06 847 25.01 -0.2 31.7 78 -3.5 25.8
19:40 1018 30.06 847 25.01 -0.2 31.6 79 -3.4 25.9
19:45 1018 30.06 847 25.01 -0.3 31.5 78 -3.7 25.4
19:50 1018 30.06 847 25.01 -0.1 31.8 76 -3.8 25.1
19:55 1018 30.06 847 25.01 -0.2 31.6 75 -4.2 24.5
20:00 1018 30.06 847 25.01 -0.6 31 75 -4.5 24
20:05 1018 30.06 847 25.01 -0.9 30.4 75 -4.8 23.3
20:10 1018 30.06 847 25.01 -0.4 31.4 73 -4.6 23.8
20:15 1018 30.06 847 25.01 -0.2 31.6 74 -4.4 24.2
20:20 1018 30.06 847 25.01 -0 32 74 -4.1 24.6
20:25 1018 30.06 847 25.01 0.1 32.2 74 -3.9 25
20:30 1018 30.06 847 25.01 0.2 32.3 75 -3.8 25.1
20:35 1018 30.06 847 25.01 0.2 32.4 75 -3.7 25.4
20:40 1018 30.06 847 25.01 0.2 32.4 75 -3.7 25.4
20:45 1018 30.06 847 25.01 0.3 32.5 75 -3.6 25.5
20:50 1018 30.06 848 25.04 0.1 32.1 75 -3.8 25.2
20:55 1018 30.06 848 25.04 -0.2 31.7 75 -4 24.8
21:00 1018 30.06 848 25.04 -0.2 31.6 75 -4.1 24.7
21:05 1018 30.06 848 25.04 -0.3 31.4 75 -4.2 24.4
21:10 1018 30.06 848 25.04 -0.6 31 77 -4.2 24.5
21:15 1019 30.09 848 25.04 -1.1 30 80 -4.1 24.6
21:20 1019 30.09 848 25.04 -1.5 29.3 82 -4.2 24.5
21:25 1019 30.09 848 25.04 -1.1 30.1 78 -4.5 23.9
21:30 1019 30.09 848 25.04 -0.9 30.3 78 -4.3 24.3
21:35 1019 30.09 848 25.04 -0.9 30.4 79 -4.1 24.6
21:40 1019 30.09 848 25.04 -1.2 29.8 79 -4.3 24.2
21:45 1019 30.09 848 25.04 -1.8 28.7 84 -4.2 24.4
21:50 1019 30.09 848 25.04 -2.2 28.1 85 -4.4 24.1
21:55 1019 30.09 848 25.04 -2.3 27.9 86 -4.4 24.1
22:00 1019 30.09 848 25.04 -2.2 28 85 -4.4 24.1
22:05 1019 30.09 848 25.04 -2.2 28.1 85 -4.4 24.2
22:10 1019 30.09 848 25.04 -2.1 28.2 85 -4.3 24.3
22:15 1019 30.09 848 25.04 -1.9 28.6 84 -4.3 24.3
22:20 1019 30.09 848 25.04 -1.9 28.6 83 -4.3 24.2
22:25 1019 30.09 848 25.04 -1.8 28.8 83 -4.4 24.2
22:30 1019 30.09 848 25.04 -1.7 28.9 83 -4.2 24.4
22:35 1019 30.09 848 25.04 -1.7 28.9 83 -4.2 24.4
22:40 1019 30.09 848 25.04 -1.6 29.1 83 -4.2 24.5
22:45 1019 30.09 848 25.04 -1.5 29.3 82 -4.1 24.6
22:50 1019 30.09 848 25.04 -1.4 29.5 82 -4.1 24.6
22:55 1019 30.09 848 25.04 -1.4 29.5 82 -4.1 24.7
23:00 1019 30.09 848 25.04 -1.4 29.4 82 -4.2 24.5
23:05 1019 30.09 848 25.04 -1.5 29.3 81 -4.3 24.3
23:10 1019 30.09 848 25.04 -1.6 29.1 82 -4.3 24.2
23:15 1019 30.09 848 25.04 -1.6 29.1 80 -4.6 23.7
23:20 1019 30.09 849 25.07 -1.4 29.5 79 -4.5 23.8
23:25 1019 30.09 849 25.07 -1.3 29.7 77 -4.8 23.4
23:30 1019 30.09 849 25.07 -1.3 29.6 77 -4.8 23.3
23:35 1019 30.09 848 25.04 -1.5 29.4 77 -4.9 23.2
23:40 1019 30.09 848 25.04 -1.7 29 77 -5.1 22.8
23:45 1019 30.09 849 25.07 -2.1 28.2 80 -5.1 22.8
23:50 1019 30.09 849 25.07 -2.4 27.7 82 -5.1 22.9
23:55 1019 30.09 849 25.07 -2.5 27.5 82 -5.1 22.8
24:00 1019 30.09 849 25.07 -2.5 27.5 82 -5.1 22.8